sensor_id;sensor_type;location;lat;lon;timestamp;temperature;humidity
29255;DHT22;16277;48.890;2.306;2024-02-16T00:00:16;18.70;99.90
29255;DHT22;16277;48.890;2.306;2024-02-16T00:15:21;18.50;99.90
29255;DHT22;16277;48.890;2.306;2024-02-16T00:30:26;18.20;99.90
29255;DHT22;16277;48.890;2.306;2024-02-16T00:45:31;18.60;99.90
29255;DHT22;16277;48.890;2.306;2024-02-16T01:00:36;18.50;99.90
29255;DHT22;16277;48.890;2.306;2024-02-16T01:15:41;18.30;99.90
29255;DHT22;16277;48.890;2.306;2024-02-16T01:30:46;18.10;99.90
29255;DHT22;16277;48.890;2.306;2024-02-16T01:45:50;18.10;99.90
29255;DHT22;16277;48.890;2.306;2024-02-16T02:00:55;18.30;99.90
29255;DHT22;16277;48.890;2.306;2024-02-16T02:16:00;18.30;99.90
29255;DHT22;16277;48.890;2.306;2024-02-16T02:31:07;17.90;99.90
29255;DHT22;16277;48.890;2.306;2024-02-16T02:46:15;18.00;99.90
29255;DHT22;16277;48.890;2.306;2024-02-16T03:01:20;17.80;99.90
29255;DHT22;16277;48.890;2.306;2024-02-16T03:16:25;17.90;99.90
29255;DHT22;16277;48.890;2.306;2024-02-16T03:31:29;17.70;99.90
29255;DHT22;16277;48.890;2.306;2024-02-16T03:46:34;17.60;99.90
29255;DHT22;16277;48.890;2.306;2024-02-16T04:01:40;17.70;99.90
29255;DHT22;16277;48.890;2.306;2024-02-16T04:16:45;17.90;99.90
29255;DHT22;16277;48.890;2.306;2024-02-16T04:31:49;17.90;99.90
29255;DHT22;16277;48.890;2.306;2024-02-16T04:46:54;17.70;99.90
29255;DHT22;16277;48.890;2.306;2024-02-16T05:01:58;17.50;99.90
29255;DHT22;16277;48.890;2.306;2024-02-16T05:17:03;17.20;99.90
29255;DHT22;16277;48.890;2.306;2024-02-16T05:32:08;17.20;99.90
29255;DHT22;16277;48.890;2.306;2024-02-16T05:47:13;17.40;99.90
29255;DHT22;16277;48.890;2.306;2024-02-16T06:02:18;17.10;99.90
29255;DHT22;16277;48.890;2.306;2024-02-16T06:17:22;17.30;99.90
29255;DHT22;16277;48.890;2.306;2024-02-16T06:32:27;17.40;99.90
29255;DHT22;16277;48.890;2.306;2024-02-16T06:47:32;17.20;99.90
29255;DHT22;16277;48.890;2.306;2024-02-16T07:02:37;17.20;99.90
29255;DHT22;16277;48.890;2.306;2024-02-16T07:17:41;17.30;99.90
29255;DHT22;16277;48.890;2.306;2024-02-16T07:32:49;17.20;99.90
29255;DHT22;16277;48.890;2.306;2024-02-16T07:47:56;17.10;99.90
29255;DHT22;16277;48.890;2.306;2024-02-16T08:03:00;17.10;99.90
29255;DHT22;16277;48.890;2.306;2024-02-16T08:18:06;17.30;99.90
29255;DHT22;16277;48.890;2.306;2024-02-16T08:33:11;17.20;99.90
29255;DHT22;16277;48.890;2.306;2024-02-16T08:48:16;17.30;99.90
29255;DHT22;16277;48.890;2.306;2024-02-16T09:03:21;17.10;99.90
29255;DHT22;16277;48.890;2.306;2024-02-16T09:18:27;17.20;99.90
29255;DHT22;16277;48.890;2.306;2024-02-16T09:33:32;17.10;99.90
29255;DHT22;16277;48.890;2.306;2024-02-16T09:48:39;16.90;99.90
29255;DHT22;16277;48.890;2.306;2024-02-16T10:03:44;16.60;99.90
29255;DHT22;16277;48.890;2.306;2024-02-16T10:18:48;16.80;99.90
29255;DHT22;16277;48.890;2.306;2024-02-16T10:33:55;16.30;99.90
29255;DHT22;16277;48.890;2.306;2024-02-16T10:49:01;16.00;99.90
29255;DHT22;16277;48.890;2.306;2024-02-16T11:04:13;15.20;99.90
29255;DHT22;16277;48.890;2.306;2024-02-16T11:19:19;15.60;99.90
29255;DHT22;16277;48.890;2.306;2024-02-16T11:34:24;15.60;99.90
29255;DHT22;16277;48.890;2.306;2024-02-16T11:49:30;15.80;99.90
29255;DHT22;16277;48.890;2.306;2024-02-16T12:04:34;15.70;99.90
29255;DHT22;16277;48.890;2.306;2024-02-16T12:19:54;15.90;99.90
29255;DHT22;16277;48.890;2.306;2024-02-16T12:35:00;15.20;99.90
29255;DHT22;16277;48.890;2.306;2024-02-16T12:50:06;15.50;99.90
29255;DHT22;16277;48.890;2.306;2024-02-16T13:05:10;15.80;99.90
29255;DHT22;16277;48.890;2.306;2024-02-16T13:20:15;15.70;99.90
29255;DHT22;16277;48.890;2.306;2024-02-16T13:35:20;15.80;99.90
29255;DHT22;16277;48.890;2.306;2024-02-16T13:50:25;16.10;99.90
29255;DHT22;16277;48.890;2.306;2024-02-16T14:05:29;16.00;99.90
29255;DHT22;16277;48.890;2.306;2024-02-16T14:20:34;15.70;99.90
29255;DHT22;16277;48.890;2.306;2024-02-16T14:35:39;15.40;99.90
29255;DHT22;16277;48.890;2.306;2024-02-16T14:50:43;15.30;99.90
29255;DHT22;16277;48.890;2.306;2024-02-16T15:05:50;15.40;99.90
29255;DHT22;16277;48.890;2.306;2024-02-16T15:20:55;15.80;99.90
29255;DHT22;16277;48.890;2.306;2024-02-16T15:35:59;16.00;99.90
29255;DHT22;16277;48.890;2.306;2024-02-16T15:51:04;16.10;99.90
29255;DHT22;16277;48.890;2.306;2024-02-16T16:06:10;16.10;99.90
29255;DHT22;16277;48.890;2.306;2024-02-16T16:21:15;16.20;99.90
29255;DHT22;16277;48.890;2.306;2024-02-16T16:36:19;15.80;99.90
29255;DHT22;16277;48.890;2.306;2024-02-16T16:51:24;15.30;99.90
29255;DHT22;16277;48.890;2.306;2024-02-16T17:06:29;15.30;99.90
29255;DHT22;16277;48.890;2.306;2024-02-16T17:21:34;15.50;99.90
29255;DHT22;16277;48.890;2.306;2024-02-16T17:36:39;15.10;99.90
29255;DHT22;16277;48.890;2.306;2024-02-16T17:51:44;15.10;99.90
29255;DHT22;16277;48.890;2.306;2024-02-16T18:06:48;15.60;99.90
29255;DHT22;16277;48.890;2.306;2024-02-16T18:21:53;15.40;99.90
29255;DHT22;16277;48.890;2.306;2024-02-16T18:36:57;15.40;99.90
29255;DHT22;16277;48.890;2.306;2024-02-16T18:52:02;16.30;99.90
29255;DHT22;16277;48.890;2.306;2024-02-16T19:07:07;15.30;99.90
29255;DHT22;16277;48.890;2.306;2024-02-16T19:22:12;16.00;99.90
29255;DHT22;16277;48.890;2.306;2024-02-16T19:37:16;15.30;99.90
29255;DHT22;16277;48.890;2.306;2024-02-16T19:52:21;15.50;99.90
29255;DHT22;16277;48.890;2.306;2024-02-16T20:07:26;15.60;99.90
29255;DHT22;16277;48.890;2.306;2024-02-16T20:22:31;15.10;99.90
29255;DHT22;16277;48.890;2.306;2024-02-16T20:37:36;15.00;99.90
29255;DHT22;16277;48.890;2.306;2024-02-16T20:52:40;14.30;99.90
29255;DHT22;16277;48.890;2.306;2024-02-16T21:07:45;15.00;99.90
29255;DHT22;16277;48.890;2.306;2024-02-16T21:22:49;15.10;99.90
29255;DHT22;16277;48.890;2.306;2024-02-16T21:37:54;14.70;99.90
29255;DHT22;16277;48.890;2.306;2024-02-16T21:52:58;15.40;99.90
29255;DHT22;16277;48.890;2.306;2024-02-16T22:08:03;14.60;99.90
29255;DHT22;16277;48.890;2.306;2024-02-16T22:23:07;14.80;99.90
29255;DHT22;16277;48.890;2.306;2024-02-16T22:38:12;14.50;99.90
29255;DHT22;16277;48.890;2.306;2024-02-16T22:53:16;14.20;99.90
29255;DHT22;16277;48.890;2.306;2024-02-16T23:08:21;14.50;99.90
29255;DHT22;16277;48.890;2.306;2024-02-16T23:23:25;15.10;99.90
29255;DHT22;16277;48.890;2.306;2024-02-16T23:38:30;15.60;99.90
29255;DHT22;16277;48.890;2.306;2024-02-16T23:53:34;14.30;99.90
